sensor_id;sensor_type;location;lat;lon;timestamp;P1;durP1;ratioP1;P2;durP2;ratioP2
48629;SDS011;34426;52.180;4.462;2022-09-21T00:00:05;6.88;;;1.73;;
48629;SDS011;34426;52.180;4.462;2022-09-21T00:02:31;7.55;;;2.05;;
48629;SDS011;34426;52.180;4.462;2022-09-21T00:04:56;6.35;;;1.80;;
48629;SDS011;34426;52.180;4.462;2022-09-21T00:07:21;10.43;;;1.90;;
48629;SDS011;34426;52.180;4.462;2022-09-21T00:09:48;6.57;;;1.40;;
48629;SDS011;34426;52.180;4.462;2022-09-21T00:12:13;9.40;;;1.70;;
48629;SDS011;34426;52.180;4.462;2022-09-21T00:14:38;6.13;;;1.85;;
48629;SDS011;34426;52.180;4.462;2022-09-21T00:17:04;6.47;;;1.80;;
48629;SDS011;34426;52.180;4.462;2022-09-21T00:19:29;7.00;;;1.90;;
48629;SDS011;34426;52.180;4.462;2022-09-21T00:21:54;12.30;;;3.17;;
48629;SDS011;34426;52.180;4.462;2022-09-21T00:24:20;9.73;;;1.80;;
48629;SDS011;34426;52.180;4.462;2022-09-21T00:26:46;7.93;;;1.83;;
48629;SDS011;34426;52.180;4.462;2022-09-21T00:29:12;3.17;;;1.48;;
48629;SDS011;34426;52.180;4.462;2022-09-21T00:31:37;5.60;;;1.80;;
48629;SDS011;34426;52.180;4.462;2022-09-21T00:34:02;7.88;;;1.90;;
48629;SDS011;34426;52.180;4.462;2022-09-21T00:36:28;8.27;;;2.42;;
48629;SDS011;34426;52.180;4.462;2022-09-21T00:38:54;4.45;;;1.40;;
48629;SDS011;34426;52.180;4.462;2022-09-21T00:41:19;4.93;;;1.75;;
48629;SDS011;34426;52.180;4.462;2022-09-21T00:43:47;8.90;;;2.28;;
48629;SDS011;34426;52.180;4.462;2022-09-21T00:46:13;5.80;;;1.80;;
48629;SDS011;34426;52.180;4.462;2022-09-21T00:48:39;8.85;;;1.80;;
48629;SDS011;34426;52.180;4.462;2022-09-21T00:51:05;8.52;;;1.90;;
48629;SDS011;34426;52.180;4.462;2022-09-21T00:53:30;6.22;;;1.48;;
48629;SDS011;34426;52.180;4.462;2022-09-21T00:55:56;7.22;;;1.63;;
48629;SDS011;34426;52.180;4.462;2022-09-21T00:58:23;9.80;;;2.05;;
48629;SDS011;34426;52.180;4.462;2022-09-21T01:00:52;9.43;;;1.48;;
48629;SDS011;34426;52.180;4.462;2022-09-21T01:03:17;5.40;;;1.45;;
48629;SDS011;34426;52.180;4.462;2022-09-21T01:05:42;7.05;;;1.58;;
48629;SDS011;34426;52.180;4.462;2022-09-21T01:08:08;9.20;;;1.85;;
48629;SDS011;34426;52.180;4.462;2022-09-21T01:10:37;7.72;;;1.67;;
48629;SDS011;34426;52.180;4.462;2022-09-21T01:13:06;7.45;;;1.63;;
48629;SDS011;34426;52.180;4.462;2022-09-21T01:15:37;9.25;;;1.70;;
48629;SDS011;34426;52.180;4.462;2022-09-21T01:18:07;7.10;;;1.70;;
48629;SDS011;34426;52.180;4.462;2022-09-21T01:20:49;13.32;;;2.08;;
48629;SDS011;34426;52.180;4.462;2022-09-21T01:23:20;4.20;;;1.50;;
48629;SDS011;34426;52.180;4.462;2022-09-21T01:25:57;5.25;;;1.90;;
48629;SDS011;34426;52.180;4.462;2022-09-21T01:28:24;10.02;;;1.90;;
48629;SDS011;34426;52.180;4.462;2022-09-21T01:30:54;5.47;;;1.73;;
48629;SDS011;34426;52.180;4.462;2022-09-21T01:33:23;4.20;;;1.42;;
48629;SDS011;34426;52.180;4.462;2022-09-21T01:35:51;8.88;;;1.58;;
48629;SDS011;34426;52.180;4.462;2022-09-21T01:38:18;4.15;;;1.50;;
48629;SDS011;34426;52.180;4.462;2022-09-21T01:40:46;4.55;;;1.60;;
48629;SDS011;34426;52.180;4.462;2022-09-21T01:43:14;8.60;;;1.80;;
48629;SDS011;34426;52.180;4.462;2022-09-21T01:45:40;5.97;;;1.75;;
48629;SDS011;34426;52.180;4.462;2022-09-21T01:48:07;8.70;;;1.80;;
48629;SDS011;34426;52.180;4.462;2022-09-21T01:50:34;6.00;;;1.85;;
48629;SDS011;34426;52.180;4.462;2022-09-21T01:53:01;8.15;;;1.70;;
48629;SDS011;34426;52.180;4.462;2022-09-21T01:55:28;8.95;;;2.78;;
48629;SDS011;34426;52.180;4.462;2022-09-21T01:57:55;7.75;;;2.00;;
48629;SDS011;34426;52.180;4.462;2022-09-21T02:00:22;7.50;;;1.83;;
48629;SDS011;34426;52.180;4.462;2022-09-21T02:02:49;7.72;;;1.92;;
48629;SDS011;34426;52.180;4.462;2022-09-21T02:05:18;10.00;;;2.80;;
48629;SDS011;34426;52.180;4.462;2022-09-21T02:07:43;10.10;;;2.03;;
48629;SDS011;34426;52.180;4.462;2022-09-21T02:10:10;6.47;;;2.33;;
48629;SDS011;34426;52.180;4.462;2022-09-21T02:12:37;9.90;;;2.10;;
48629;SDS011;34426;52.180;4.462;2022-09-21T02:15:03;4.88;;;1.90;;
48629;SDS011;34426;52.180;4.462;2022-09-21T02:17:33;2.80;;;1.40;;
48629;SDS011;34426;52.180;4.462;2022-09-21T02:20:02;5.53;;;2.33;;
48629;SDS011;34426;52.180;4.462;2022-09-21T02:22:32;6.38;;;1.92;;
48629;SDS011;34426;52.180;4.462;2022-09-21T02:25:03;8.63;;;2.40;;
48629;SDS011;34426;52.180;4.462;2022-09-21T02:27:31;8.43;;;2.28;;
48629;SDS011;34426;52.180;4.462;2022-09-21T02:30:00;11.18;;;2.40;;
48629;SDS011;34426;52.180;4.462;2022-09-21T02:32:27;6.22;;;1.60;;
48629;SDS011;34426;52.180;4.462;2022-09-21T02:34:56;7.22;;;1.90;;
48629;SDS011;34426;52.180;4.462;2022-09-21T02:37:24;8.93;;;1.67;;
48629;SDS011;34426;52.180;4.462;2022-09-21T02:39:53;6.68;;;1.67;;
48629;SDS011;34426;52.180;4.462;2022-09-21T02:42:21;5.28;;;1.98;;
48629;SDS011;34426;52.180;4.462;2022-09-21T02:44:49;8.55;;;2.17;;
48629;SDS011;34426;52.180;4.462;2022-09-21T02:47:17;8.15;;;1.80;;
48629;SDS011;34426;52.180;4.462;2022-09-21T02:49:43;6.50;;;2.03;;
48629;SDS011;34426;52.180;4.462;2022-09-21T02:52:11;6.20;;;2.03;;
48629;SDS011;34426;52.180;4.462;2022-09-21T02:54:37;7.07;;;2.03;;
48629;SDS011;34426;52.180;4.462;2022-09-21T02:57:05;7.70;;;1.70;;
48629;SDS011;34426;52.180;4.462;2022-09-21T02:59:30;4.72;;;1.70;;
48629;SDS011;34426;52.180;4.462;2022-09-21T03:01:56;5.75;;;1.92;;
48629;SDS011;34426;52.180;4.462;2022-09-21T03:04:21;6.13;;;1.87;;
48629;SDS011;34426;52.180;4.462;2022-09-21T03:06:46;4.97;;;1.90;;
48629;SDS011;34426;52.180;4.462;2022-09-21T03:09:12;8.80;;;2.20;;
48629;SDS011;34426;52.180;4.462;2022-09-21T03:11:37;10.03;;;2.73;;
48629;SDS011;34426;52.180;4.462;2022-09-21T03:14:03;8.23;;;2.13;;
48629;SDS011;34426;52.180;4.462;2022-09-21T03:16:29;7.75;;;2.22;;
48629;SDS011;34426;52.180;4.462;2022-09-21T03:18:54;11.07;;;1.97;;
48629;SDS011;34426;52.180;4.462;2022-09-21T03:21:19;7.43;;;2.23;;
48629;SDS011;34426;52.180;4.462;2022-09-21T03:23:44;7.43;;;2.23;;
48629;SDS011;34426;52.180;4.462;2022-09-21T03:26:09;6.20;;;2.55;;
48629;SDS011;34426;52.180;4.462;2022-09-21T03:28:35;7.57;;;2.15;;
48629;SDS011;34426;52.180;4.462;2022-09-21T03:31:01;11.27;;;2.40;;
48629;SDS011;34426;52.180;4.462;2022-09-21T03:33:27;8.75;;;2.40;;
48629;SDS011;34426;52.180;4.462;2022-09-21T03:35:52;10.10;;;2.60;;
48629;SDS011;34426;52.180;4.462;2022-09-21T03:38:18;9.75;;;2.38;;
48629;SDS011;34426;52.180;4.462;2022-09-21T03:40:43;8.10;;;2.22;;
48629;SDS011;34426;52.180;4.462;2022-09-21T03:43:08;7.68;;;2.42;;
48629;SDS011;34426;52.180;4.462;2022-09-21T03:45:34;10.03;;;2.33;;
48629;SDS011;34426;52.180;4.462;2022-09-21T03:48:00;6.27;;;2.70;;
48629;SDS011;34426;52.180;4.462;2022-09-21T03:50:26;5.97;;;2.28;;
48629;SDS011;34426;52.180;4.462;2022-09-21T03:52:51;8.48;;;2.72;;
48629;SDS011;34426;52.180;4.462;2022-09-21T03:55:17;7.47;;;2.17;;
48629;SDS011;34426;52.180;4.462;2022-09-21T03:57:42;5.07;;;2.22;;
48629;SDS011;34426;52.180;4.462;2022-09-21T04:00:08;8.43;;;2.22;;
48629;SDS011;34426;52.180;4.462;2022-09-21T04:02:33;6.43;;;2.13;;
48629;SDS011;34426;52.180;4.462;2022-09-21T04:05:00;4.22;;;2.15;;
48629;SDS011;34426;52.180;4.462;2022-09-21T04:07:25;8.88;;;2.63;;
48629;SDS011;34426;52.180;4.462;2022-09-21T04:09:50;6.25;;;2.08;;
48629;SDS011;34426;52.180;4.462;2022-09-21T04:12:16;9.15;;;2.47;;
48629;SDS011;34426;52.180;4.462;2022-09-21T04:14:41;6.05;;;2.03;;
48629;SDS011;34426;52.180;4.462;2022-09-21T04:17:06;6.43;;;1.70;;
48629;SDS011;34426;52.180;4.462;2022-09-21T04:19:31;8.18;;;2.00;;
48629;SDS011;34426;52.180;4.462;2022-09-21T04:21:58;6.80;;;1.87;;
48629;SDS011;34426;52.180;4.462;2022-09-21T04:24:23;8.10;;;2.30;;
48629;SDS011;34426;52.180;4.462;2022-09-21T04:26:48;5.03;;;2.22;;
48629;SDS011;34426;52.180;4.462;2022-09-21T04:29:14;10.13;;;2.03;;
48629;SDS011;34426;52.180;4.462;2022-09-21T04:31:39;9.18;;;2.25;;
48629;SDS011;34426;52.180;4.462;2022-09-21T04:34:04;6.90;;;2.03;;
48629;SDS011;34426;52.180;4.462;2022-09-21T04:36:30;6.13;;;1.93;;
48629;SDS011;34426;52.180;4.462;2022-09-21T04:38:56;3.10;;;1.70;;
48629;SDS011;34426;52.180;4.462;2022-09-21T04:41:21;5.82;;;2.20;;
48629;SDS011;34426;52.180;4.462;2022-09-21T04:43:47;3.53;;;1.90;;
48629;SDS011;34426;52.180;4.462;2022-09-21T04:46:14;6.03;;;2.10;;
48629;SDS011;34426;52.180;4.462;2022-09-21T04:48:39;6.47;;;2.40;;
48629;SDS011;34426;52.180;4.462;2022-09-21T04:51:05;8.60;;;2.05;;
48629;SDS011;34426;52.180;4.462;2022-09-21T04:53:30;5.07;;;2.40;;
48629;SDS011;34426;52.180;4.462;2022-09-21T04:55:57;8.02;;;2.70;;
48629;SDS011;34426;52.180;4.462;2022-09-21T04:58:22;9.35;;;2.90;;
48629;SDS011;34426;52.180;4.462;2022-09-21T05:00:48;7.45;;;2.40;;
48629;SDS011;34426;52.180;4.462;2022-09-21T05:03:13;8.45;;;3.15;;
48629;SDS011;34426;52.180;4.462;2022-09-21T05:05:38;7.43;;;2.30;;
48629;SDS011;34426;52.180;4.462;2022-09-21T05:08:03;8.45;;;2.20;;
48629;SDS011;34426;52.180;4.462;2022-09-21T05:10:28;7.53;;;2.13;;
48629;SDS011;34426;52.180;4.462;2022-09-21T05:12:55;4.32;;;1.77;;
48629;SDS011;34426;52.180;4.462;2022-09-21T05:15:20;4.82;;;2.28;;
48629;SDS011;34426;52.180;4.462;2022-09-21T05:17:46;6.53;;;2.33;;
48629;SDS011;34426;52.180;4.462;2022-09-21T05:20:11;7.10;;;2.30;;
48629;SDS011;34426;52.180;4.462;2022-09-21T05:22:36;6.80;;;2.10;;
48629;SDS011;34426;52.180;4.462;2022-09-21T05:25:01;8.40;;;1.83;;
48629;SDS011;34426;52.180;4.462;2022-09-21T05:27:27;6.40;;;2.17;;
48629;SDS011;34426;52.180;4.462;2022-09-21T05:29:53;14.87;;;3.00;;
48629;SDS011;34426;52.180;4.462;2022-09-21T05:32:20;10.88;;;2.92;;
48629;SDS011;34426;52.180;4.462;2022-09-21T05:34:49;12.15;;;3.10;;
48629;SDS011;34426;52.180;4.462;2022-09-21T05:37:24;10.07;;;3.13;;
48629;SDS011;34426;52.180;4.462;2022-09-21T05:39:53;6.15;;;2.08;;
48629;SDS011;34426;52.180;4.462;2022-09-21T05:42:19;12.65;;;2.30;;
48629;SDS011;34426;52.180;4.462;2022-09-21T05:44:44;11.73;;;2.33;;
48629;SDS011;34426;52.180;4.462;2022-09-21T05:47:15;10.98;;;2.25;;
48629;SDS011;34426;52.180;4.462;2022-09-21T05:49:44;10.65;;;2.30;;
48629;SDS011;34426;52.180;4.462;2022-09-21T05:52:14;7.60;;;2.38;;
48629;SDS011;34426;52.180;4.462;2022-09-21T05:54:44;13.73;;;2.40;;
48629;SDS011;34426;52.180;4.462;2022-09-21T05:57:12;13.85;;;2.45;;
48629;SDS011;34426;52.180;4.462;2022-09-21T05:59:46;10.77;;;3.85;;
48629;SDS011;34426;52.180;4.462;2022-09-21T06:02:17;9.40;;;2.95;;
48629;SDS011;34426;52.180;4.462;2022-09-21T06:04:44;8.13;;;2.97;;
48629;SDS011;34426;52.180;4.462;2022-09-21T06:07:11;9.68;;;3.42;;
48629;SDS011;34426;52.180;4.462;2022-09-21T06:09:36;7.10;;;2.97;;
48629;SDS011;34426;52.180;4.462;2022-09-21T06:12:01;9.80;;;3.30;;
48629;SDS011;34426;52.180;4.462;2022-09-21T06:14:27;10.13;;;3.47;;
48629;SDS011;34426;52.180;4.462;2022-09-21T06:16:52;7.75;;;2.50;;
48629;SDS011;34426;52.180;4.462;2022-09-21T06:19:19;9.57;;;2.70;;
48629;SDS011;34426;52.180;4.462;2022-09-21T06:21:44;7.10;;;3.08;;
48629;SDS011;34426;52.180;4.462;2022-09-21T06:24:09;8.17;;;3.30;;
48629;SDS011;34426;52.180;4.462;2022-09-21T06:26:35;8.10;;;3.17;;
48629;SDS011;34426;52.180;4.462;2022-09-21T06:29:00;13.52;;;4.22;;
48629;SDS011;34426;52.180;4.462;2022-09-21T06:31:25;9.75;;;2.90;;
48629;SDS011;34426;52.180;4.462;2022-09-21T06:33:50;11.18;;;3.30;;
48629;SDS011;34426;52.180;4.462;2022-09-21T06:36:17;14.33;;;3.73;;
48629;SDS011;34426;52.180;4.462;2022-09-21T06:38:42;9.18;;;2.80;;
48629;SDS011;34426;52.180;4.462;2022-09-21T06:41:07;4.90;;;2.60;;
48629;SDS011;34426;52.180;4.462;2022-09-21T06:43:32;9.43;;;2.97;;
48629;SDS011;34426;52.180;4.462;2022-09-21T06:45:58;9.47;;;3.67;;
48629;SDS011;34426;52.180;4.462;2022-09-21T06:48:24;10.32;;;4.88;;
48629;SDS011;34426;52.180;4.462;2022-09-21T06:50:49;12.13;;;4.13;;
48629;SDS011;34426;52.180;4.462;2022-09-21T06:53:16;10.47;;;3.60;;
48629;SDS011;34426;52.180;4.462;2022-09-21T06:55:41;9.98;;;3.47;;
48629;SDS011;34426;52.180;4.462;2022-09-21T06:58:06;10.80;;;3.47;;
48629;SDS011;34426;52.180;4.462;2022-09-21T07:00:31;11.07;;;2.73;;
48629;SDS011;34426;52.180;4.462;2022-09-21T07:02:57;10.95;;;3.60;;
48629;SDS011;34426;52.180;4.462;2022-09-21T07:05:22;19.33;;;3.90;;
48629;SDS011;34426;52.180;4.462;2022-09-21T07:07:47;12.02;;;4.20;;
48629;SDS011;34426;52.180;4.462;2022-09-21T07:10:14;9.27;;;4.20;;
48629;SDS011;34426;52.180;4.462;2022-09-21T07:12:39;9.27;;;3.80;;
48629;SDS011;34426;52.180;4.462;2022-09-21T07:15:05;11.48;;;3.40;;
48629;SDS011;34426;52.180;4.462;2022-09-21T07:17:31;12.80;;;3.17;;
48629;SDS011;34426;52.180;4.462;2022-09-21T07:19:56;11.05;;;3.13;;
48629;SDS011;34426;52.180;4.462;2022-09-21T07:22:21;22.53;;;3.97;;
48629;SDS011;34426;52.180;4.462;2022-09-21T07:24:47;9.73;;;2.70;;
48629;SDS011;34426;52.180;4.462;2022-09-21T07:27:13;11.30;;;2.10;;
48629;SDS011;34426;52.180;4.462;2022-09-21T07:29:38;10.20;;;2.42;;
48629;SDS011;34426;52.180;4.462;2022-09-21T07:32:04;12.77;;;2.50;;
48629;SDS011;34426;52.180;4.462;2022-09-21T07:34:29;13.83;;;2.20;;
48629;SDS011;34426;52.180;4.462;2022-09-21T07:36:54;10.40;;;2.05;;
48629;SDS011;34426;52.180;4.462;2022-09-21T07:39:19;6.27;;;2.00;;
48629;SDS011;34426;52.180;4.462;2022-09-21T07:41:44;10.17;;;1.70;;
48629;SDS011;34426;52.180;4.462;2022-09-21T07:44:11;6.83;;;2.00;;
48629;SDS011;34426;52.180;4.462;2022-09-21T07:46:36;5.90;;;1.60;;
48629;SDS011;34426;52.180;4.462;2022-09-21T07:49:01;5.20;;;1.50;;
48629;SDS011;34426;52.180;4.462;2022-09-21T07:51:27;8.03;;;1.90;;
48629;SDS011;34426;52.180;4.462;2022-09-21T07:53:53;10.27;;;2.40;;
48629;SDS011;34426;52.180;4.462;2022-09-21T07:56:18;9.63;;;1.83;;
48629;SDS011;34426;52.180;4.462;2022-09-21T07:58:44;7.77;;;1.90;;
48629;SDS011;34426;52.180;4.462;2022-09-21T08:01:10;9.83;;;1.77;;
48629;SDS011;34426;52.180;4.462;2022-09-21T08:03:35;8.73;;;1.63;;
48629;SDS011;34426;52.180;4.462;2022-09-21T08:06:00;12.10;;;2.27;;
48629;SDS011;34426;52.180;4.462;2022-09-21T08:08:26;10.00;;;2.20;;
48629;SDS011;34426;52.180;4.462;2022-09-21T08:10:51;12.30;;;1.93;;
48629;SDS011;34426;52.180;4.462;2022-09-21T08:13:16;13.50;;;1.92;;
48629;SDS011;34426;52.180;4.462;2022-09-21T08:15:41;8.00;;;1.80;;
48629;SDS011;34426;52.180;4.462;2022-09-21T08:18:08;9.47;;;1.90;;
48629;SDS011;34426;52.180;4.462;2022-09-21T08:20:33;11.32;;;2.22;;
48629;SDS011;34426;52.180;4.462;2022-09-21T08:22:58;9.40;;;1.90;;
48629;SDS011;34426;52.180;4.462;2022-09-21T08:25:24;9.88;;;1.98;;
48629;SDS011;34426;52.180;4.462;2022-09-21T08:27:49;12.13;;;2.05;;
48629;SDS011;34426;52.180;4.462;2022-09-21T08:30:14;11.43;;;2.30;;
48629;SDS011;34426;52.180;4.462;2022-09-21T08:32:39;6.53;;;1.45;;
48629;SDS011;34426;52.180;4.462;2022-09-21T08:35:07;9.53;;;1.50;;
48629;SDS011;34426;52.180;4.462;2022-09-21T08:37:32;12.18;;;1.70;;
48629;SDS011;34426;52.180;4.462;2022-09-21T08:39:57;9.57;;;1.60;;
48629;SDS011;34426;52.180;4.462;2022-09-21T08:42:29;10.47;;;1.80;;
48629;SDS011;34426;52.180;4.462;2022-09-21T08:44:57;9.20;;;1.90;;
48629;SDS011;34426;52.180;4.462;2022-09-21T08:47:27;10.45;;;1.58;;
48629;SDS011;34426;52.180;4.462;2022-09-21T08:49:57;9.90;;;1.85;;
48629;SDS011;34426;52.180;4.462;2022-09-21T08:52:24;11.57;;;1.60;;
48629;SDS011;34426;52.180;4.462;2022-09-21T08:54:50;9.93;;;1.25;;
48629;SDS011;34426;52.180;4.462;2022-09-21T08:57:19;10.65;;;1.65;;
48629;SDS011;34426;52.180;4.462;2022-09-21T08:59:46;6.78;;;1.20;;
48629;SDS011;34426;52.180;4.462;2022-09-21T09:02:20;6.43;;;1.50;;
48629;SDS011;34426;52.180;4.462;2022-09-21T09:04:49;6.82;;;0.98;;
48629;SDS011;34426;52.180;4.462;2022-09-21T09:07:21;9.68;;;1.83;;
48629;SDS011;34426;52.180;4.462;2022-09-21T09:09:57;8.23;;;1.10;;
48629;SDS011;34426;52.180;4.462;2022-09-21T09:12:30;7.40;;;1.00;;
48629;SDS011;34426;52.180;4.462;2022-09-21T09:15:03;6.82;;;1.17;;
48629;SDS011;34426;52.180;4.462;2022-09-21T09:17:32;9.45;;;1.33;;
48629;SDS011;34426;52.180;4.462;2022-09-21T09:20:00;8.52;;;1.90;;
48629;SDS011;34426;52.180;4.462;2022-09-21T09:22:28;8.38;;;1.15;;
48629;SDS011;34426;52.180;4.462;2022-09-21T09:24:57;4.75;;;0.85;;
48629;SDS011;34426;52.180;4.462;2022-09-21T09:27:26;6.97;;;1.20;;
48629;SDS011;34426;52.180;4.462;2022-09-21T09:29:53;10.45;;;1.15;;
48629;SDS011;34426;52.180;4.462;2022-09-21T09:32:19;8.45;;;1.17;;
48629;SDS011;34426;52.180;4.462;2022-09-21T09:34:49;9.48;;;1.45;;
48629;SDS011;34426;52.180;4.462;2022-09-21T09:37:16;3.40;;;0.80;;
48629;SDS011;34426;52.180;4.462;2022-09-21T09:39:41;8.13;;;0.90;;
48629;SDS011;34426;52.180;4.462;2022-09-21T09:42:15;10.27;;;1.48;;
48629;SDS011;34426;52.180;4.462;2022-09-21T09:44:48;6.43;;;1.38;;
48629;SDS011;34426;52.180;4.462;2022-09-21T09:47:21;6.15;;;1.00;;
48629;SDS011;34426;52.180;4.462;2022-09-21T09:49:54;7.80;;;0.90;;
48629;SDS011;34426;52.180;4.462;2022-09-21T09:52:23;11.02;;;1.25;;
48629;SDS011;34426;52.180;4.462;2022-09-21T09:54:49;8.15;;;1.55;;
48629;SDS011;34426;52.180;4.462;2022-09-21T09:57:16;7.00;;;1.47;;
48629;SDS011;34426;52.180;4.462;2022-09-21T09:59:45;8.93;;;1.23;;
48629;SDS011;34426;52.180;4.462;2022-09-21T10:02:18;11.13;;;1.23;;
48629;SDS011;34426;52.180;4.462;2022-09-21T10:04:51;5.83;;;1.10;;
48629;SDS011;34426;52.180;4.462;2022-09-21T10:07:18;13.45;;;3.17;;
48629;SDS011;34426;52.180;4.462;2022-09-21T10:09:43;7.23;;;1.20;;
48629;SDS011;34426;52.180;4.462;2022-09-21T10:12:14;8.73;;;1.30;;
48629;SDS011;34426;52.180;4.462;2022-09-21T10:14:46;5.55;;;1.20;;
48629;SDS011;34426;52.180;4.462;2022-09-21T10:17:12;3.25;;;0.93;;
48629;SDS011;34426;52.180;4.462;2022-09-21T10:19:40;7.68;;;1.35;;
48629;SDS011;34426;52.180;4.462;2022-09-21T10:22:05;5.18;;;1.27;;
48629;SDS011;34426;52.180;4.462;2022-09-21T10:24:32;11.23;;;2.80;;
48629;SDS011;34426;52.180;4.462;2022-09-21T10:27:02;8.10;;;1.13;;
48629;SDS011;34426;52.180;4.462;2022-09-21T10:29:29;6.30;;;1.10;;
48629;SDS011;34426;52.180;4.462;2022-09-21T10:31:57;3.30;;;0.88;;
48629;SDS011;34426;52.180;4.462;2022-09-21T10:34:22;4.85;;;1.13;;
48629;SDS011;34426;52.180;4.462;2022-09-21T10:36:48;7.90;;;1.55;;
48629;SDS011;34426;52.180;4.462;2022-09-21T10:39:21;7.28;;;1.65;;
48629;SDS011;34426;52.180;4.462;2022-09-21T10:41:47;9.18;;;1.50;;
48629;SDS011;34426;52.180;4.462;2022-09-21T10:44:13;9.27;;;1.30;;
48629;SDS011;34426;52.180;4.462;2022-09-21T10:46:40;9.18;;;1.27;;
48629;SDS011;34426;52.180;4.462;2022-09-21T10:49:11;6.43;;;1.67;;
48629;SDS011;34426;52.180;4.462;2022-09-21T10:51:37;6.90;;;1.20;;
48629;SDS011;34426;52.180;4.462;2022-09-21T10:54:06;5.07;;;1.08;;
48629;SDS011;34426;52.180;4.462;2022-09-21T10:56:32;8.38;;;1.55;;
48629;SDS011;34426;52.180;4.462;2022-09-21T10:59:10;5.85;;;1.05;;
48629;SDS011;34426;52.180;4.462;2022-09-21T11:01:36;8.05;;;1.63;;
48629;SDS011;34426;52.180;4.462;2022-09-21T11:04:07;7.68;;;1.00;;
48629;SDS011;34426;52.180;4.462;2022-09-21T11:06:38;7.68;;;0.90;;
48629;SDS011;34426;52.180;4.462;2022-09-21T11:09:05;4.03;;;1.02;;
48629;SDS011;34426;52.180;4.462;2022-09-21T11:11:42;5.07;;;1.08;;
48629;SDS011;34426;52.180;4.462;2022-09-21T11:14:13;8.00;;;0.98;;
48629;SDS011;34426;52.180;4.462;2022-09-21T11:16:42;6.90;;;1.02;;
48629;SDS011;34426;52.180;4.462;2022-09-21T11:19:10;4.47;;;0.90;;
48629;SDS011;34426;52.180;4.462;2022-09-21T11:21:40;11.38;;;2.58;;
48629;SDS011;34426;52.180;4.462;2022-09-21T11:24:09;8.60;;;2.50;;
48629;SDS011;34426;52.180;4.462;2022-09-21T11:26:38;5.72;;;1.38;;
48629;SDS011;34426;52.180;4.462;2022-09-21T11:29:07;4.95;;;0.98;;
48629;SDS011;34426;52.180;4.462;2022-09-21T11:31:40;6.28;;;1.35;;
48629;SDS011;34426;52.180;4.462;2022-09-21T11:34:17;3.53;;;1.10;;
48629;SDS011;34426;52.180;4.462;2022-09-21T11:36:51;4.63;;;1.00;;
48629;SDS011;34426;52.180;4.462;2022-09-21T11:39:21;4.18;;;0.93;;
48629;SDS011;34426;52.180;4.462;2022-09-21T11:41:53;5.55;;;1.02;;
48629;SDS011;34426;52.180;4.462;2022-09-21T11:44:29;9.35;;;1.60;;
48629;SDS011;34426;52.180;4.462;2022-09-21T11:47:02;8.38;;;1.45;;
48629;SDS011;34426;52.180;4.462;2022-09-21T11:49:40;6.75;;;1.27;;
48629;SDS011;34426;52.180;4.462;2022-09-21T11:52:15;5.90;;;1.23;;
48629;SDS011;34426;52.180;4.462;2022-09-21T11:54:47;7.95;;;1.15;;
48629;SDS011;34426;52.180;4.462;2022-09-21T11:57:15;9.43;;;1.30;;
48629;SDS011;34426;52.180;4.462;2022-09-21T11:59:46;4.65;;;0.93;;
48629;SDS011;34426;52.180;4.462;2022-09-21T12:02:25;5.97;;;1.15;;
48629;SDS011;34426;52.180;4.462;2022-09-21T12:04:54;5.82;;;1.20;;
48629;SDS011;34426;52.180;4.462;2022-09-21T12:10:17;7.15;;;1.13;;
48629;SDS011;34426;52.180;4.462;2022-09-21T12:12:49;4.25;;;1.02;;
48629;SDS011;34426;52.180;4.462;2022-09-21T12:15:19;5.40;;;1.20;;
48629;SDS011;34426;52.180;4.462;2022-09-21T12:17:46;9.70;;;1.30;;
48629;SDS011;34426;52.180;4.462;2022-09-21T12:20:15;4.78;;;1.08;;
48629;SDS011;34426;52.180;4.462;2022-09-21T12:22:42;9.10;;;1.40;;
48629;SDS011;34426;52.180;4.462;2022-09-21T12:25:11;5.55;;;1.10;;
48629;SDS011;34426;52.180;4.462;2022-09-21T12:27:39;13.43;;;1.15;;
48629;SDS011;34426;52.180;4.462;2022-09-21T12:30:06;8.85;;;1.10;;
48629;SDS011;34426;52.180;4.462;2022-09-21T12:32:38;10.25;;;1.10;;
48629;SDS011;34426;52.180;4.462;2022-09-21T12:35:10;6.30;;;1.20;;
48629;SDS011;34426;52.180;4.462;2022-09-21T12:37:39;4.10;;;0.98;;
48629;SDS011;34426;52.180;4.462;2022-09-21T12:40:15;7.93;;;1.35;;
48629;SDS011;34426;52.180;4.462;2022-09-21T12:42:43;8.50;;;1.20;;
48629;SDS011;34426;52.180;4.462;2022-09-21T12:45:14;8.95;;;1.42;;
48629;SDS011;34426;52.180;4.462;2022-09-21T12:47:43;6.82;;;1.13;;
48629;SDS011;34426;52.180;4.462;2022-09-21T12:50:14;4.28;;;0.82;;
48629;SDS011;34426;52.180;4.462;2022-09-21T12:52:40;7.18;;;1.30;;
48629;SDS011;34426;52.180;4.462;2022-09-21T12:55:09;5.23;;;1.27;;
48629;SDS011;34426;52.180;4.462;2022-09-21T12:57:44;4.95;;;1.15;;
48629;SDS011;34426;52.180;4.462;2022-09-21T13:00:13;7.22;;;1.20;;
48629;SDS011;34426;52.180;4.462;2022-09-21T13:02:40;5.13;;;1.08;;
48629;SDS011;34426;52.180;4.462;2022-09-21T13:05:09;6.22;;;0.90;;
48629;SDS011;34426;52.180;4.462;2022-09-21T13:07:41;5.72;;;1.25;;
48629;SDS011;34426;52.180;4.462;2022-09-21T13:10:14;3.42;;;0.80;;
48629;SDS011;34426;52.180;4.462;2022-09-21T13:12:41;9.60;;;1.00;;
48629;SDS011;34426;52.180;4.462;2022-09-21T13:15:12;5.88;;;1.17;;
48629;SDS011;34426;52.180;4.462;2022-09-21T13:17:38;6.38;;;0.95;;
48629;SDS011;34426;52.180;4.462;2022-09-21T13:20:04;5.95;;;1.08;;
48629;SDS011;34426;52.180;4.462;2022-09-21T13:22:31;6.00;;;1.02;;
48629;SDS011;34426;52.180;4.462;2022-09-21T13:24:59;5.47;;;1.15;;
48629;SDS011;34426;52.180;4.462;2022-09-21T13:27:32;2.58;;;0.52;;
48629;SDS011;34426;52.180;4.462;2022-09-21T13:30:21;5.18;;;1.00;;
48629;SDS011;34426;52.180;4.462;2022-09-21T13:32:51;6.82;;;1.05;;
48629;SDS011;34426;52.180;4.462;2022-09-21T13:40:48;6.75;;;1.25;;
48629;SDS011;34426;52.180;4.462;2022-09-21T13:45:58;5.53;;;0.90;;
48629;SDS011;34426;52.180;4.462;2022-09-21T13:48:25;4.03;;;0.95;;
48629;SDS011;34426;52.180;4.462;2022-09-21T13:50:50;5.78;;;1.25;;
48629;SDS011;34426;52.180;4.462;2022-09-21T13:53:17;10.00;;;1.55;;
48629;SDS011;34426;52.180;4.462;2022-09-21T13:55:47;4.10;;;1.05;;
48629;SDS011;34426;52.180;4.462;2022-09-21T13:58:17;6.70;;;0.90;;
48629;SDS011;34426;52.180;4.462;2022-09-21T14:00:49;5.05;;;1.02;;
48629;SDS011;34426;52.180;4.462;2022-09-21T14:03:22;5.03;;;1.00;;
48629;SDS011;34426;52.180;4.462;2022-09-21T14:05:49;10.57;;;1.23;;
48629;SDS011;34426;52.180;4.462;2022-09-21T14:08:23;9.02;;;1.60;;
48629;SDS011;34426;52.180;4.462;2022-09-21T14:10:50;5.13;;;1.30;;
48629;SDS011;34426;52.180;4.462;2022-09-21T14:13:25;5.05;;;1.20;;
48629;SDS011;34426;52.180;4.462;2022-09-21T14:15:51;6.75;;;1.40;;
48629;SDS011;34426;52.180;4.462;2022-09-21T14:18:17;7.73;;;1.27;;
48629;SDS011;34426;52.180;4.462;2022-09-21T14:23:29;5.22;;;1.40;;
48629;SDS011;34426;52.180;4.462;2022-09-21T14:25:54;3.70;;;0.88;;
48629;SDS011;34426;52.180;4.462;2022-09-21T14:28:25;4.38;;;1.35;;
48629;SDS011;34426;52.180;4.462;2022-09-21T14:30:53;6.55;;;1.40;;
48629;SDS011;34426;52.180;4.462;2022-09-21T14:33:30;4.38;;;1.00;;
48629;SDS011;34426;52.180;4.462;2022-09-21T14:35:55;13.27;;;1.27;;
48629;SDS011;34426;52.180;4.462;2022-09-21T14:38:22;5.70;;;1.20;;
48629;SDS011;34426;52.180;4.462;2022-09-21T14:40:50;13.82;;;1.40;;
48629;SDS011;34426;52.180;4.462;2022-09-21T14:43:17;5.43;;;1.55;;
48629;SDS011;34426;52.180;4.462;2022-09-21T14:45:45;6.75;;;1.40;;
48629;SDS011;34426;52.180;4.462;2022-09-21T14:48:14;6.25;;;1.00;;
48629;SDS011;34426;52.180;4.462;2022-09-21T14:50:42;6.05;;;1.33;;
48629;SDS011;34426;52.180;4.462;2022-09-21T14:53:22;5.38;;;0.95;;
48629;SDS011;34426;52.180;4.462;2022-09-21T14:55:57;6.75;;;1.25;;
48629;SDS011;34426;52.180;4.462;2022-09-21T14:58:30;5.78;;;1.20;;
48629;SDS011;34426;52.180;4.462;2022-09-21T15:03:42;8.35;;;1.35;;